sensor_id;sensor_type;location;lat;lon;timestamp;P1;durP1;ratioP1;P2;durP2;ratioP2
13933;SDS011;7039;52.168;9.866;2023-06-24T00:02:23;8.23;;;5.80;;
13933;SDS011;7039;52.168;9.866;2023-06-24T00:04:51;9.43;;;6.23;;
13933;SDS011;7039;52.168;9.866;2023-06-24T00:07:17;16.97;;;5.83;;
13933;SDS011;7039;52.168;9.866;2023-06-24T00:09:45;9.07;;;6.30;;
13933;SDS011;7039;52.168;9.866;2023-06-24T00:12:12;7.40;;;5.57;;
13933;SDS011;7039;52.168;9.866;2023-06-24T00:14:44;10.90;;;6.10;;
13933;SDS011;7039;52.168;9.866;2023-06-24T00:17:11;11.33;;;6.07;;
13933;SDS011;7039;52.168;9.866;2023-06-24T00:19:38;8.53;;;6.30;;
13933;SDS011;7039;52.168;9.866;2023-06-24T00:22:06;12.63;;;5.90;;
13933;SDS011;7039;52.168;9.866;2023-06-24T00:24:32;12.63;;;6.03;;
13933;SDS011;7039;52.168;9.866;2023-06-24T00:26:59;12.87;;;6.27;;
13933;SDS011;7039;52.168;9.866;2023-06-24T00:29:25;13.43;;;5.60;;
13933;SDS011;7039;52.168;9.866;2023-06-24T00:31:51;11.53;;;5.60;;
13933;SDS011;7039;52.168;9.866;2023-06-24T00:34:18;13.03;;;6.07;;
13933;SDS011;7039;52.168;9.866;2023-06-24T00:36:45;12.50;;;5.47;;
13933;SDS011;7039;52.168;9.866;2023-06-24T00:39:13;9.10;;;5.30;;
13933;SDS011;7039;52.168;9.866;2023-06-24T00:41:40;14.03;;;5.93;;
13933;SDS011;7039;52.168;9.866;2023-06-24T00:44:06;8.80;;;5.23;;
13933;SDS011;7039;52.168;9.866;2023-06-24T00:46:33;17.03;;;6.17;;
13933;SDS011;7039;52.168;9.866;2023-06-24T00:49:01;12.27;;;6.33;;
13933;SDS011;7039;52.168;9.866;2023-06-24T00:51:27;11.27;;;6.30;;
13933;SDS011;7039;52.168;9.866;2023-06-24T00:53:56;10.20;;;5.93;;
13933;SDS011;7039;52.168;9.866;2023-06-24T00:56:25;10.80;;;6.37;;
13933;SDS011;7039;52.168;9.866;2023-06-24T00:58:53;9.50;;;6.27;;
13933;SDS011;7039;52.168;9.866;2023-06-24T01:01:20;9.63;;;5.97;;
13933;SDS011;7039;52.168;9.866;2023-06-24T01:03:49;9.83;;;6.03;;
13933;SDS011;7039;52.168;9.866;2023-06-24T01:06:15;6.43;;;5.50;;
13933;SDS011;7039;52.168;9.866;2023-06-24T01:08:42;9.73;;;5.83;;
13933;SDS011;7039;52.168;9.866;2023-06-24T01:11:08;8.93;;;5.93;;
13933;SDS011;7039;52.168;9.866;2023-06-24T01:13:37;11.93;;;5.50;;
13933;SDS011;7039;52.168;9.866;2023-06-24T01:16:10;11.07;;;6.70;;
13933;SDS011;7039;52.168;9.866;2023-06-24T01:18:48;9.37;;;6.03;;
13933;SDS011;7039;52.168;9.866;2023-06-24T01:21:31;7.77;;;5.87;;
13933;SDS011;7039;52.168;9.866;2023-06-24T01:31:56;11.93;;;5.47;;
13933;SDS011;7039;52.168;9.866;2023-06-24T01:34:32;8.53;;;5.63;;
13933;SDS011;7039;52.168;9.866;2023-06-24T01:37:40;6.57;;;5.60;;
13933;SDS011;7039;52.168;9.866;2023-06-24T01:43:20;8.17;;;5.63;;
13933;SDS011;7039;52.168;9.866;2023-06-24T01:46:27;9.73;;;5.63;;
13933;SDS011;7039;52.168;9.866;2023-06-24T02:02:05;11.00;;;5.37;;
13933;SDS011;7039;52.168;9.866;2023-06-24T02:34:22;10.50;;;5.93;;
13933;SDS011;7039;52.168;9.866;2023-06-24T02:39:38;10.00;;;6.20;;
13933;SDS011;7039;52.168;9.866;2023-06-24T02:42:25;12.10;;;6.67;;
13933;SDS011;7039;52.168;9.866;2023-06-24T03:51:28;8.97;;;6.20;;
13933;SDS011;7039;52.168;9.866;2023-06-24T03:54:02;9.17;;;6.00;;
13933;SDS011;7039;52.168;9.866;2023-06-24T03:56:56;11.00;;;6.43;;
13933;SDS011;7039;52.168;9.866;2023-06-24T04:02:42;9.07;;;5.93;;
13933;SDS011;7039;52.168;9.866;2023-06-24T07:40:32;6.70;;;3.63;;
13933;SDS011;7039;52.168;9.866;2023-06-24T08:02:34;5.83;;;3.87;;
13933;SDS011;7039;52.168;9.866;2023-06-24T08:05:22;3.50;;;3.20;;
13933;SDS011;7039;52.168;9.866;2023-06-24T08:08:08;4.93;;;3.60;;
13933;SDS011;7039;52.168;9.866;2023-06-24T08:10:36;5.67;;;3.73;;
13933;SDS011;7039;52.168;9.866;2023-06-24T08:13:03;5.57;;;3.47;;
13933;SDS011;7039;52.168;9.866;2023-06-24T08:15:57;7.20;;;3.93;;
13933;SDS011;7039;52.168;9.866;2023-06-24T08:18:24;4.13;;;3.60;;
13933;SDS011;7039;52.168;9.866;2023-06-24T08:20:50;6.63;;;3.63;;
13933;SDS011;7039;52.168;9.866;2023-06-24T08:23:54;4.27;;;2.80;;
13933;SDS011;7039;52.168;9.866;2023-06-24T08:26:21;5.40;;;3.17;;
13933;SDS011;7039;52.168;9.866;2023-06-24T08:29:24;6.40;;;3.87;;
13933;SDS011;7039;52.168;9.866;2023-06-24T08:31:52;8.30;;;4.13;;
13933;SDS011;7039;52.168;9.866;2023-06-24T08:34:19;6.97;;;4.47;;
13933;SDS011;7039;52.168;9.866;2023-06-24T08:36:45;6.20;;;4.43;;
13933;SDS011;7039;52.168;9.866;2023-06-24T08:39:12;10.97;;;4.50;;
13933;SDS011;7039;52.168;9.866;2023-06-24T08:41:38;7.10;;;4.17;;
13933;SDS011;7039;52.168;9.866;2023-06-24T08:44:05;7.47;;;4.47;;
13933;SDS011;7039;52.168;9.866;2023-06-24T08:46:32;8.43;;;4.93;;
13933;SDS011;7039;52.168;9.866;2023-06-24T08:49:05;8.33;;;4.70;;
13933;SDS011;7039;52.168;9.866;2023-06-24T08:51:38;8.47;;;5.40;;
13933;SDS011;7039;52.168;9.866;2023-06-24T08:54:09;5.77;;;4.70;;
13933;SDS011;7039;52.168;9.866;2023-06-24T08:59:12;7.57;;;4.80;;
13933;SDS011;7039;52.168;9.866;2023-06-24T09:01:44;5.53;;;4.73;;
13933;SDS011;7039;52.168;9.866;2023-06-24T09:04:13;6.83;;;5.30;;
13933;SDS011;7039;52.168;9.866;2023-06-24T09:06:40;7.97;;;5.13;;
13933;SDS011;7039;52.168;9.866;2023-06-24T09:09:16;10.53;;;4.73;;
13933;SDS011;7039;52.168;9.866;2023-06-24T09:11:47;9.57;;;5.00;;
13933;SDS011;7039;52.168;9.866;2023-06-24T09:14:18;6.53;;;4.80;;
13933;SDS011;7039;52.168;9.866;2023-06-24T09:17:09;7.00;;;4.57;;
13933;SDS011;7039;52.168;9.866;2023-06-24T09:19:37;8.73;;;5.27;;
13933;SDS011;7039;52.168;9.866;2023-06-24T09:22:05;9.23;;;4.47;;
13933;SDS011;7039;52.168;9.866;2023-06-24T09:24:32;6.57;;;4.80;;
13933;SDS011;7039;52.168;9.866;2023-06-24T09:26:59;7.27;;;4.70;;
13933;SDS011;7039;52.168;9.866;2023-06-24T09:29:27;7.73;;;4.83;;
13933;SDS011;7039;52.168;9.866;2023-06-24T09:32:19;7.00;;;4.40;;
13933;SDS011;7039;52.168;9.866;2023-06-24T09:34:47;5.93;;;4.83;;
13933;SDS011;7039;52.168;9.866;2023-06-24T09:37:20;6.40;;;5.07;;
13933;SDS011;7039;52.168;9.866;2023-06-24T09:39:48;6.33;;;4.47;;
13933;SDS011;7039;52.168;9.866;2023-06-24T09:42:14;7.80;;;5.13;;
13933;SDS011;7039;52.168;9.866;2023-06-24T09:44:41;9.17;;;4.63;;
13933;SDS011;7039;52.168;9.866;2023-06-24T09:47:07;6.70;;;4.70;;
13933;SDS011;7039;52.168;9.866;2023-06-24T09:49:34;5.47;;;4.97;;
13933;SDS011;7039;52.168;9.866;2023-06-24T09:52:02;5.10;;;4.37;;
13933;SDS011;7039;52.168;9.866;2023-06-24T09:54:31;6.47;;;4.70;;
13933;SDS011;7039;52.168;9.866;2023-06-24T09:56:59;7.20;;;4.67;;
13933;SDS011;7039;52.168;9.866;2023-06-24T09:59:28;6.53;;;4.97;;
13933;SDS011;7039;52.168;9.866;2023-06-24T10:01:58;8.23;;;5.20;;
13933;SDS011;7039;52.168;9.866;2023-06-24T10:04:25;5.13;;;4.43;;
13933;SDS011;7039;52.168;9.866;2023-06-24T10:06:53;5.77;;;5.10;;
13933;SDS011;7039;52.168;9.866;2023-06-24T10:09:22;8.18;;;4.43;;
13933;SDS011;7039;52.168;9.866;2023-06-24T10:11:49;7.67;;;4.87;;
13933;SDS011;7039;52.168;9.866;2023-06-24T10:14:15;6.47;;;4.80;;
13933;SDS011;7039;52.168;9.866;2023-06-24T10:16:43;7.30;;;5.20;;
13933;SDS011;7039;52.168;9.866;2023-06-24T10:19:13;6.47;;;5.10;;
13933;SDS011;7039;52.168;9.866;2023-06-24T10:21:47;6.40;;;4.83;;
13933;SDS011;7039;52.168;9.866;2023-06-24T10:24:30;5.40;;;4.90;;
13933;SDS011;7039;52.168;9.866;2023-06-24T10:27:01;5.32;;;4.47;;
13933;SDS011;7039;52.168;9.866;2023-06-24T10:29:33;5.57;;;4.93;;
13933;SDS011;7039;52.168;9.866;2023-06-24T10:32:02;8.33;;;4.63;;
13933;SDS011;7039;52.168;9.866;2023-06-24T10:34:30;5.63;;;4.82;;
13933;SDS011;7039;52.168;9.866;2023-06-24T10:36:59;7.13;;;4.55;;
13933;SDS011;7039;52.168;9.866;2023-06-24T10:42:27;5.93;;;4.80;;
13933;SDS011;7039;52.168;9.866;2023-06-24T10:44:55;6.25;;;4.85;;
13933;SDS011;7039;52.168;9.866;2023-06-24T10:47:22;7.22;;;5.07;;
13933;SDS011;7039;52.168;9.866;2023-06-24T10:49:50;6.10;;;4.65;;
13933;SDS011;7039;52.168;9.866;2023-06-24T10:52:18;6.78;;;4.88;;
13933;SDS011;7039;52.168;9.866;2023-06-24T10:54:46;5.97;;;5.30;;
13933;SDS011;7039;52.168;9.866;2023-06-24T10:57:14;9.73;;;4.70;;
13933;SDS011;7039;52.168;9.866;2023-06-24T10:59:41;5.78;;;5.07;;
13933;SDS011;7039;52.168;9.866;2023-06-24T11:02:09;7.85;;;4.68;;
13933;SDS011;7039;52.168;9.866;2023-06-24T11:04:42;7.68;;;5.07;;
13933;SDS011;7039;52.168;9.866;2023-06-24T11:07:10;4.93;;;4.43;;
13933;SDS011;7039;52.168;9.866;2023-06-24T11:09:36;5.38;;;4.88;;
13933;SDS011;7039;52.168;9.866;2023-06-24T11:12:05;5.53;;;4.93;;
13933;SDS011;7039;52.168;9.866;2023-06-24T11:14:34;8.80;;;5.30;;
13933;SDS011;7039;52.168;9.866;2023-06-24T11:17:02;6.13;;;5.05;;
13933;SDS011;7039;52.168;9.866;2023-06-24T11:19:29;7.30;;;5.10;;
13933;SDS011;7039;52.168;9.866;2023-06-24T11:21:58;6.43;;;5.00;;
13933;SDS011;7039;52.168;9.866;2023-06-24T11:24:25;5.22;;;4.72;;
13933;SDS011;7039;52.168;9.866;2023-06-24T11:26:51;4.93;;;4.43;;
13933;SDS011;7039;52.168;9.866;2023-06-24T11:29:19;8.38;;;5.00;;
13933;SDS011;7039;52.168;9.866;2023-06-24T11:31:46;5.32;;;4.80;;
13933;SDS011;7039;52.168;9.866;2023-06-24T11:34:12;5.82;;;4.63;;
13933;SDS011;7039;52.168;9.866;2023-06-24T11:36:38;5.45;;;4.60;;
13933;SDS011;7039;52.168;9.866;2023-06-24T11:39:05;6.15;;;4.95;;
13933;SDS011;7039;52.168;9.866;2023-06-24T11:41:31;6.22;;;4.70;;
13933;SDS011;7039;52.168;9.866;2023-06-24T11:43:58;5.20;;;4.70;;
13933;SDS011;7039;52.168;9.866;2023-06-24T11:46:26;5.20;;;4.70;;
13933;SDS011;7039;52.168;9.866;2023-06-24T11:49:02;5.30;;;4.80;;
13933;SDS011;7039;52.168;9.866;2023-06-24T11:51:29;5.22;;;4.72;;
13933;SDS011;7039;52.168;9.866;2023-06-24T11:53:58;5.10;;;4.60;;
13933;SDS011;7039;52.168;9.866;2023-06-24T11:56:33;5.43;;;4.60;;
13933;SDS011;7039;52.168;9.866;2023-06-24T11:59:00;6.40;;;4.93;;
13933;SDS011;7039;52.168;9.866;2023-06-24T12:01:31;5.40;;;4.72;;
13933;SDS011;7039;52.168;9.866;2023-06-24T12:03:59;5.93;;;4.53;;
13933;SDS011;7039;52.168;9.866;2023-06-24T12:06:26;5.00;;;4.45;;
13933;SDS011;7039;52.168;9.866;2023-06-24T12:08:52;6.70;;;5.28;;
13933;SDS011;7039;52.168;9.866;2023-06-24T12:11:19;8.80;;;4.78;;
13933;SDS011;7039;52.168;9.866;2023-06-24T12:13:45;5.25;;;4.50;;
13933;SDS011;7039;52.168;9.866;2023-06-24T12:16:12;6.75;;;5.15;;
13933;SDS011;7039;52.168;9.866;2023-06-24T12:18:40;6.47;;;5.38;;
13933;SDS011;7039;52.168;9.866;2023-06-24T12:21:06;9.48;;;5.10;;
13933;SDS011;7039;52.168;9.866;2023-06-24T12:23:32;5.25;;;4.75;;
13933;SDS011;7039;52.168;9.866;2023-06-24T12:25:59;5.68;;;5.18;;
13933;SDS011;7039;52.168;9.866;2023-06-24T12:28:26;6.25;;;5.25;;
13933;SDS011;7039;52.168;9.866;2023-06-24T12:30:52;5.45;;;4.95;;
13933;SDS011;7039;52.168;9.866;2023-06-24T12:33:18;5.65;;;5.07;;
13933;SDS011;7039;52.168;9.866;2023-06-24T12:35:49;6.65;;;5.05;;
13933;SDS011;7039;52.168;9.866;2023-06-24T12:38:15;5.47;;;4.97;;
13933;SDS011;7039;52.168;9.866;2023-06-24T12:40:42;5.18;;;4.68;;
13933;SDS011;7039;52.168;9.866;2023-06-24T12:43:10;6.82;;;5.32;;
13933;SDS011;7039;52.168;9.866;2023-06-24T12:45:36;8.35;;;5.43;;
13933;SDS011;7039;52.168;9.866;2023-06-24T12:48:03;6.72;;;4.85;;
13933;SDS011;7039;52.168;9.866;2023-06-24T12:50:30;6.32;;;4.88;;
13933;SDS011;7039;52.168;9.866;2023-06-24T12:52:58;6.57;;;5.50;;
13933;SDS011;7039;52.168;9.866;2023-06-24T12:55:24;6.57;;;5.65;;
13933;SDS011;7039;52.168;9.866;2023-06-24T12:57:51;9.38;;;5.18;;
13933;SDS011;7039;52.168;9.866;2023-06-24T13:00:18;8.75;;;5.50;;
13933;SDS011;7039;52.168;9.866;2023-06-24T13:02:46;5.63;;;4.95;;
13933;SDS011;7039;52.168;9.866;2023-06-24T13:05:12;8.38;;;5.05;;
13933;SDS011;7039;52.168;9.866;2023-06-24T13:07:38;8.95;;;5.50;;
13933;SDS011;7039;52.168;9.866;2023-06-24T13:10:07;5.55;;;4.90;;
13933;SDS011;7039;52.168;9.866;2023-06-24T13:12:34;5.55;;;5.05;;
13933;SDS011;7039;52.168;9.866;2023-06-24T13:15:01;7.95;;;5.30;;
13933;SDS011;7039;52.168;9.866;2023-06-24T13:17:29;5.45;;;4.90;;
13933;SDS011;7039;52.168;9.866;2023-06-24T13:19:56;6.25;;;4.97;;
13933;SDS011;7039;52.168;9.866;2023-06-24T13:22:22;5.85;;;5.25;;
13933;SDS011;7039;52.168;9.866;2023-06-24T13:24:49;5.97;;;5.38;;
13933;SDS011;7039;52.168;9.866;2023-06-24T13:27:17;5.97;;;5.35;;
13933;SDS011;7039;52.168;9.866;2023-06-24T13:29:43;6.35;;;5.22;;
13933;SDS011;7039;52.168;9.866;2023-06-24T13:32:10;5.53;;;5.03;;
13933;SDS011;7039;52.168;9.866;2023-06-24T13:34:36;11.05;;;5.50;;
13933;SDS011;7039;52.168;9.866;2023-06-24T13:37:03;8.20;;;5.05;;
13933;SDS011;7039;52.168;9.866;2023-06-24T13:39:30;6.65;;;5.00;;
13933;SDS011;7039;52.168;9.866;2023-06-24T13:41:57;9.63;;;5.00;;
13933;SDS011;7039;52.168;9.866;2023-06-24T13:44:25;6.55;;;5.03;;
13933;SDS011;7039;52.168;9.866;2023-06-24T13:46:52;9.00;;;4.75;;
13933;SDS011;7039;52.168;9.866;2023-06-24T13:49:19;5.57;;;4.88;;
13933;SDS011;7039;52.168;9.866;2023-06-24T13:51:46;6.72;;;4.60;;
13933;SDS011;7039;52.168;9.866;2023-06-24T13:54:12;5.68;;;4.38;;
13933;SDS011;7039;52.168;9.866;2023-06-24T13:56:39;5.50;;;4.65;;
13933;SDS011;7039;52.168;9.866;2023-06-24T13:59:05;5.28;;;4.80;;
13933;SDS011;7039;52.168;9.866;2023-06-24T14:01:33;5.63;;;5.03;;
13933;SDS011;7039;52.168;9.866;2023-06-24T14:04:01;5.60;;;5.10;;
13933;SDS011;7039;52.168;9.866;2023-06-24T14:06:27;5.50;;;5.00;;
13933;SDS011;7039;52.168;9.866;2023-06-24T14:08:54;7.88;;;4.95;;
13933;SDS011;7039;52.168;9.866;2023-06-24T14:11:20;5.57;;;4.85;;
13933;SDS011;7039;52.168;9.866;2023-06-24T14:13:47;5.40;;;4.85;;
13933;SDS011;7039;52.168;9.866;2023-06-24T14:16:14;7.35;;;5.10;;
13933;SDS011;7039;52.168;9.866;2023-06-24T14:18:42;7.40;;;4.90;;
13933;SDS011;7039;52.168;9.866;2023-06-24T14:21:09;6.82;;;4.80;;
13933;SDS011;7039;52.168;9.866;2023-06-24T14:23:35;9.32;;;5.30;;
13933;SDS011;7039;52.168;9.866;2023-06-24T14:26:02;5.75;;;5.25;;
13933;SDS011;7039;52.168;9.866;2023-06-24T14:28:29;7.75;;;4.65;;
13933;SDS011;7039;52.168;9.866;2023-06-24T14:30:56;6.88;;;4.68;;
13933;SDS011;7039;52.168;9.866;2023-06-24T14:33:22;5.40;;;4.97;;
13933;SDS011;7039;52.168;9.866;2023-06-24T14:35:50;5.40;;;5.00;;
13933;SDS011;7039;52.168;9.866;2023-06-24T14:38:17;5.28;;;4.78;;
13933;SDS011;7039;52.168;9.866;2023-06-24T14:40:43;5.18;;;4.72;;
13933;SDS011;7039;52.168;9.866;2023-06-24T14:43:10;5.07;;;4.57;;
13933;SDS011;7039;52.168;9.866;2023-06-24T14:45:36;5.03;;;4.47;;
13933;SDS011;7039;52.168;9.866;2023-06-24T14:48:03;5.47;;;4.97;;
13933;SDS011;7039;52.168;9.866;2023-06-24T14:50:29;5.18;;;4.72;;
13933;SDS011;7039;52.168;9.866;2023-06-24T14:52:57;5.72;;;5.13;;
13933;SDS011;7039;52.168;9.866;2023-06-24T14:55:24;5.15;;;4.65;;
13933;SDS011;7039;52.168;9.866;2023-06-24T14:57:50;6.18;;;4.68;;
13933;SDS011;7039;52.168;9.866;2023-06-24T15:00:17;5.65;;;5.13;;
13933;SDS011;7039;52.168;9.866;2023-06-24T15:02:43;5.35;;;4.82;;
13933;SDS011;7039;52.168;9.866;2023-06-24T15:05:10;6.07;;;5.05;;
13933;SDS011;7039;52.168;9.866;2023-06-24T15:07:36;5.15;;;4.70;;
13933;SDS011;7039;52.168;9.866;2023-06-24T15:10:05;5.30;;;4.80;;
13933;SDS011;7039;52.168;9.866;2023-06-24T15:12:32;5.50;;;4.43;;
13933;SDS011;7039;52.168;9.866;2023-06-24T15:14:59;5.40;;;4.88;;
13933;SDS011;7039;52.168;9.866;2023-06-24T15:17:26;5.28;;;4.70;;
13933;SDS011;7039;52.168;9.866;2023-06-24T15:19:53;6.00;;;5.07;;
13933;SDS011;7039;52.168;9.866;2023-06-24T15:22:20;4.97;;;4.50;;
13933;SDS011;7039;52.168;9.866;2023-06-24T15:24:46;5.75;;;4.93;;
13933;SDS011;7039;52.168;9.866;2023-06-24T15:27:14;5.38;;;4.88;;
13933;SDS011;7039;52.168;9.866;2023-06-24T15:29:41;5.75;;;4.20;;
13933;SDS011;7039;52.168;9.866;2023-06-24T15:32:07;4.90;;;4.47;;
13933;SDS011;7039;52.168;9.866;2023-06-24T15:34:34;4.90;;;4.50;;
13933;SDS011;7039;52.168;9.866;2023-06-24T15:37:00;5.15;;;4.45;;
13933;SDS011;7039;52.168;9.866;2023-06-24T15:39:27;5.07;;;4.55;;
13933;SDS011;7039;52.168;9.866;2023-06-24T15:41:53;4.90;;;4.38;;
13933;SDS011;7039;52.168;9.866;2023-06-24T15:44:21;5.45;;;4.88;;
13933;SDS011;7039;52.168;9.866;2023-06-24T15:46:47;7.93;;;5.00;;
13933;SDS011;7039;52.168;9.866;2023-06-24T15:49:14;6.05;;;4.75;;
13933;SDS011;7039;52.168;9.866;2023-06-24T15:51:40;9.15;;;4.85;;
13933;SDS011;7039;52.168;9.866;2023-06-24T15:54:07;5.70;;;4.38;;
13933;SDS011;7039;52.168;9.866;2023-06-24T15:56:33;5.32;;;4.55;;
13933;SDS011;7039;52.168;9.866;2023-06-24T15:59:00;5.78;;;4.90;;
13933;SDS011;7039;52.168;9.866;2023-06-24T16:01:28;5.75;;;5.20;;
13933;SDS011;7039;52.168;9.866;2023-06-24T16:03:55;5.43;;;4.93;;
13933;SDS011;7039;52.168;9.866;2023-06-24T16:06:21;4.90;;;4.50;;
13933;SDS011;7039;52.168;9.866;2023-06-24T16:08:48;5.00;;;4.50;;
13933;SDS011;7039;52.168;9.866;2023-06-24T16:11:14;7.35;;;4.53;;
13933;SDS011;7039;52.168;9.866;2023-06-24T16:13:41;5.50;;;5.03;;
13933;SDS011;7039;52.168;9.866;2023-06-24T16:16:07;5.28;;;4.78;;
13933;SDS011;7039;52.168;9.866;2023-06-24T16:18:35;6.28;;;5.68;;
13933;SDS011;7039;52.168;9.866;2023-06-24T16:21:02;5.97;;;5.47;;
13933;SDS011;7039;52.168;9.866;2023-06-24T16:23:28;6.85;;;6.15;;
13933;SDS011;7039;52.168;9.866;2023-06-24T16:25:55;5.85;;;4.78;;
13933;SDS011;7039;52.168;9.866;2023-06-24T16:28:21;5.72;;;5.15;;
13933;SDS011;7039;52.168;9.866;2023-06-24T16:30:48;5.75;;;5.15;;
13933;SDS011;7039;52.168;9.866;2023-06-24T16:33:14;16.00;;;6.47;;
13933;SDS011;7039;52.168;9.866;2023-06-24T16:35:42;5.68;;;5.10;;
13933;SDS011;7039;52.168;9.866;2023-06-24T16:38:08;5.95;;;4.90;;
13933;SDS011;7039;52.168;9.866;2023-06-24T16:40:35;5.32;;;4.82;;
13933;SDS011;7039;52.168;9.866;2023-06-24T16:43:01;5.15;;;4.65;;
13933;SDS011;7039;52.168;9.866;2023-06-24T16:45:28;6.22;;;4.88;;
13933;SDS011;7039;52.168;9.866;2023-06-24T16:47:54;5.82;;;5.28;;
13933;SDS011;7039;52.168;9.866;2023-06-24T16:50:21;8.13;;;5.00;;
13933;SDS011;7039;52.168;9.866;2023-06-24T16:52:49;6.85;;;4.53;;
13933;SDS011;7039;52.168;9.866;2023-06-24T16:55:15;5.40;;;4.90;;
13933;SDS011;7039;52.168;9.866;2023-06-24T16:57:42;7.65;;;4.78;;
13933;SDS011;7039;52.168;9.866;2023-06-24T17:00:09;6.25;;;5.03;;
13933;SDS011;7039;52.168;9.866;2023-06-24T17:02:36;5.88;;;5.15;;
13933;SDS011;7039;52.168;9.866;2023-06-24T17:05:02;6.53;;;4.75;;
13933;SDS011;7039;52.168;9.866;2023-06-24T17:07:29;8.35;;;5.00;;
13933;SDS011;7039;52.168;9.866;2023-06-24T17:09:58;6.82;;;4.72;;
13933;SDS011;7039;52.168;9.866;2023-06-24T17:12:25;5.18;;;4.78;;
13933;SDS011;7039;52.168;9.866;2023-06-24T17:14:52;6.43;;;4.72;;
13933;SDS011;7039;52.168;9.866;2023-06-24T17:17:18;5.60;;;5.10;;
13933;SDS011;7039;52.168;9.866;2023-06-24T17:19:44;6.25;;;5.35;;
13933;SDS011;7039;52.168;9.866;2023-06-24T17:22:11;9.20;;;4.90;;
13933;SDS011;7039;52.168;9.866;2023-06-24T17:24:37;5.10;;;4.60;;
13933;SDS011;7039;52.168;9.866;2023-06-24T17:27:05;5.93;;;5.03;;
13933;SDS011;7039;52.168;9.866;2023-06-24T17:29:32;6.50;;;4.72;;
13933;SDS011;7039;52.168;9.866;2023-06-24T17:31:59;5.60;;;5.10;;
13933;SDS011;7039;52.168;9.866;2023-06-24T17:34:26;5.07;;;4.60;;
13933;SDS011;7039;52.168;9.866;2023-06-24T17:36:53;6.82;;;4.72;;
13933;SDS011;7039;52.168;9.866;2023-06-24T17:39:20;6.25;;;5.55;;
13933;SDS011;7039;52.168;9.866;2023-06-24T17:41:46;5.28;;;4.78;;
13933;SDS011;7039;52.168;9.866;2023-06-24T17:44:14;5.72;;;4.72;;
13933;SDS011;7039;52.168;9.866;2023-06-24T17:46:41;5.65;;;5.05;;
13933;SDS011;7039;52.168;9.866;2023-06-24T17:49:07;8.98;;;5.07;;
13933;SDS011;7039;52.168;9.866;2023-06-24T17:51:34;5.20;;;4.72;;
13933;SDS011;7039;52.168;9.866;2023-06-24T17:54:00;8.05;;;5.07;;
13933;SDS011;7039;52.168;9.866;2023-06-24T17:56:27;5.25;;;4.85;;
13933;SDS011;7039;52.168;9.866;2023-06-24T17:58:54;6.75;;;5.93;;
13933;SDS011;7039;52.168;9.866;2023-06-24T18:01:21;17.35;;;15.55;;
13933;SDS011;7039;52.168;9.866;2023-06-24T18:03:53;8.73;;;7.78;;
13933;SDS011;7039;52.168;9.866;2023-06-24T18:06:20;9.80;;;7.53;;
13933;SDS011;7039;52.168;9.866;2023-06-24T18:08:47;13.32;;;10.15;;
13933;SDS011;7039;52.168;9.866;2023-06-24T18:11:13;14.65;;;10.93;;
13933;SDS011;7039;52.168;9.866;2023-06-24T18:13:40;6.97;;;6.28;;
13933;SDS011;7039;52.168;9.866;2023-06-24T18:16:06;21.83;;;17.48;;
13933;SDS011;7039;52.168;9.866;2023-06-24T18:18:34;16.60;;;14.48;;
13933;SDS011;7039;52.168;9.866;2023-06-24T18:21:01;8.45;;;6.38;;
13933;SDS011;7039;52.168;9.866;2023-06-24T18:23:27;6.13;;;5.53;;
13933;SDS011;7039;52.168;9.866;2023-06-24T18:25:54;6.22;;;5.65;;
13933;SDS011;7039;52.168;9.866;2023-06-24T18:28:20;7.10;;;6.05;;
13933;SDS011;7039;52.168;9.866;2023-06-24T18:30:47;6.20;;;5.55;;
13933;SDS011;7039;52.168;9.866;2023-06-24T18:33:13;6.50;;;5.50;;
13933;SDS011;7039;52.168;9.866;2023-06-24T18:35:41;7.47;;;5.93;;
13933;SDS011;7039;52.168;9.866;2023-06-24T18:38:08;6.10;;;5.15;;
13933;SDS011;7039;52.168;9.866;2023-06-24T18:40:35;7.32;;;5.80;;
13933;SDS011;7039;52.168;9.866;2023-06-24T18:43:01;6.22;;;5.63;;
13933;SDS011;7039;52.168;9.866;2023-06-24T18:45:29;6.70;;;5.45;;
13933;SDS011;7039;52.168;9.866;2023-06-24T18:47:56;7.32;;;5.38;;
13933;SDS011;7039;52.168;9.866;2023-06-24T18:50:22;7.55;;;5.97;;
13933;SDS011;7039;52.168;9.866;2023-06-24T18:52:50;7.65;;;6.38;;
13933;SDS011;7039;52.168;9.866;2023-06-24T18:55:17;9.15;;;7.60;;
13933;SDS011;7039;52.168;9.866;2023-06-24T18:57:43;8.55;;;6.60;;
13933;SDS011;7039;52.168;9.866;2023-06-24T19:00:10;8.77;;;6.53;;
13933;SDS011;7039;52.168;9.866;2023-06-24T19:02:37;14.20;;;7.28;;
13933;SDS011;7039;52.168;9.866;2023-06-24T19:05:04;7.85;;;6.65;;
13933;SDS011;7039;52.168;9.866;2023-06-24T19:07:31;10.60;;;6.68;;
13933;SDS011;7039;52.168;9.866;2023-06-24T19:09:58;7.00;;;6.30;;
13933;SDS011;7039;52.168;9.866;2023-06-24T19:12:25;9.02;;;6.07;;
13933;SDS011;7039;52.168;9.866;2023-06-24T19:14:51;8.45;;;6.90;;
13933;SDS011;7039;52.168;9.866;2023-06-24T19:17:18;8.02;;;6.72;;
13933;SDS011;7039;52.168;9.866;2023-06-24T19:19:44;10.40;;;8.38;;
13933;SDS011;7039;52.168;9.866;2023-06-24T19:22:11;11.95;;;7.75;;
13933;SDS011;7039;52.168;9.866;2023-06-24T19:24:37;10.45;;;7.55;;
13933;SDS011;7039;52.168;9.866;2023-06-24T19:27:05;9.68;;;7.35;;
13933;SDS011;7039;52.168;9.866;2023-06-24T19:29:32;13.73;;;7.10;;
13933;SDS011;7039;52.168;9.866;2023-06-24T19:31:58;8.67;;;6.77;;
13933;SDS011;7039;52.168;9.866;2023-06-24T19:34:24;8.45;;;7.15;;
13933;SDS011;7039;52.168;9.866;2023-06-24T19:36:51;10.18;;;7.38;;
13933;SDS011;7039;52.168;9.866;2023-06-24T19:39:19;9.17;;;7.07;;
13933;SDS011;7039;52.168;9.866;2023-06-24T19:41:46;8.67;;;7.20;;
13933;SDS011;7039;52.168;9.866;2023-06-24T19:44:14;8.10;;;7.30;;
13933;SDS011;7039;52.168;9.866;2023-06-24T19:46:40;10.27;;;7.63;;
13933;SDS011;7039;52.168;9.866;2023-06-24T19:49:07;9.57;;;7.57;;
13933;SDS011;7039;52.168;9.866;2023-06-24T19:51:33;9.03;;;7.60;;
13933;SDS011;7039;52.168;9.866;2023-06-24T19:53:59;10.10;;;7.53;;
13933;SDS011;7039;52.168;9.866;2023-06-24T19:56:26;9.33;;;7.50;;
13933;SDS011;7039;52.168;9.866;2023-06-24T19:58:52;11.20;;;7.97;;
13933;SDS011;7039;52.168;9.866;2023-06-24T20:01:20;11.20;;;7.60;;
13933;SDS011;7039;52.168;9.866;2023-06-24T20:03:47;7.37;;;6.47;;
13933;SDS011;7039;52.168;9.866;2023-06-24T20:06:13;7.87;;;7.07;;
13933;SDS011;7039;52.168;9.866;2023-06-24T20:08:39;8.73;;;6.90;;
13933;SDS011;7039;52.168;9.866;2023-06-24T20:11:06;8.60;;;7.20;;
13933;SDS011;7039;52.168;9.866;2023-06-24T20:13:32;9.50;;;7.20;;
13933;SDS011;7039;52.168;9.866;2023-06-24T20:15:59;9.13;;;7.50;;
13933;SDS011;7039;52.168;9.866;2023-06-24T20:18:27;11.23;;;7.90;;
13933;SDS011;7039;52.168;9.866;2023-06-24T20:20:53;8.57;;;7.67;;
13933;SDS011;7039;52.168;9.866;2023-06-24T20:23:19;9.80;;;8.43;;
13933;SDS011;7039;52.168;9.866;2023-06-24T20:25:46;6.90;;;6.17;;
13933;SDS011;7039;52.168;9.866;2023-06-24T20:28:13;8.00;;;7.20;;
13933;SDS011;7039;52.168;9.866;2023-06-24T20:30:40;7.70;;;6.70;;
13933;SDS011;7039;52.168;9.866;2023-06-24T20:33:06;8.37;;;6.77;;
13933;SDS011;7039;52.168;9.866;2023-06-24T20:35:34;7.70;;;6.90;;
13933;SDS011;7039;52.168;9.866;2023-06-24T20:38:01;7.83;;;6.57;;
13933;SDS011;7039;52.168;9.866;2023-06-24T20:40:28;9.83;;;6.47;;
13933;SDS011;7039;52.168;9.866;2023-06-24T20:42:54;8.73;;;6.73;;
13933;SDS011;7039;52.168;9.866;2023-06-24T20:45:20;7.97;;;6.40;;
13933;SDS011;7039;52.168;9.866;2023-06-24T20:47:47;8.17;;;6.83;;
13933;SDS011;7039;52.168;9.866;2023-06-24T20:50:13;14.47;;;7.10;;
13933;SDS011;7039;52.168;9.866;2023-06-24T20:52:41;11.77;;;7.00;;
13933;SDS011;7039;52.168;9.866;2023-06-24T20:55:08;8.57;;;7.27;;
13933;SDS011;7039;52.168;9.866;2023-06-24T20:57:34;10.50;;;7.47;;
13933;SDS011;7039;52.168;9.866;2023-06-24T21:00:01;8.33;;;7.27;;
13933;SDS011;7039;52.168;9.866;2023-06-24T21:02:27;10.00;;;7.40;;
13933;SDS011;7039;52.168;9.866;2023-06-24T21:04:54;14.17;;;7.60;;
13933;SDS011;7039;52.168;9.866;2023-06-24T21:07:20;9.27;;;7.47;;
13933;SDS011;7039;52.168;9.866;2023-06-24T21:09:48;9.63;;;6.90;;
13933;SDS011;7039;52.168;9.866;2023-06-24T21:12:15;8.30;;;7.03;;
13933;SDS011;7039;52.168;9.866;2023-06-24T21:14:42;10.47;;;7.13;;